sensor_id;sensor_type;location;lat;lon;timestamp;pressure;altitude;pressure_sealevel;temperature;humidity
41062;BME280;26812;42.662;23.352;2023-09-12T00:01:04;95098.22;;;18.22;50.14
41062;BME280;26812;42.662;23.352;2023-09-12T00:03:31;95091.19;;;18.02;50.10
41062;BME280;26812;42.662;23.352;2023-09-12T00:05:58;95095.09;;;17.82;50.68
41062;BME280;26812;42.662;23.352;2023-09-12T00:08:24;95079.22;;;17.33;52.15
41062;BME280;26812;42.662;23.352;2023-09-12T00:11:02;95100.75;;;17.57;51.87
41062;BME280;26812;42.662;23.352;2023-09-12T00:13:28;95100.94;;;17.14;53.16
41062;BME280;26812;42.662;23.352;2023-09-12T00:15:54;95096.91;;;17.07;53.72
41062;BME280;26812;42.662;23.352;2023-09-12T00:18:19;95093.25;;;17.35;52.79
41062;BME280;26812;42.662;23.352;2023-09-12T00:20:45;95089.72;;;17.50;52.52
41062;BME280;26812;42.662;23.352;2023-09-12T00:23:10;95080.75;;;17.15;53.30
41062;BME280;26812;42.662;23.352;2023-09-12T00:25:35;95105.38;;;17.37;53.18
41062;BME280;26812;42.662;23.352;2023-09-12T00:28:01;95096.03;;;17.03;53.75
41062;BME280;26812;42.662;23.352;2023-09-12T00:30:26;95109.03;;;16.94;54.61
41062;BME280;26812;42.662;23.352;2023-09-12T00:32:51;95111.38;;;17.12;54.20
41062;BME280;26812;42.662;23.352;2023-09-12T00:35:17;95093.34;;;16.88;54.67
41062;BME280;26812;42.662;23.352;2023-09-12T00:37:42;95095.00;;;16.92;55.53
41062;BME280;26812;42.662;23.352;2023-09-12T00:40:08;95113.34;;;16.80;55.79
41062;BME280;26812;42.662;23.352;2023-09-12T00:42:33;95107.56;;;16.97;54.96
41062;BME280;26812;42.662;23.352;2023-09-12T00:44:58;95099.31;;;16.93;54.98
41062;BME280;26812;42.662;23.352;2023-09-12T00:47:24;95106.91;;;17.03;54.97
41062;BME280;26812;42.662;23.352;2023-09-12T00:49:51;95111.38;;;17.27;54.74
41062;BME280;26812;42.662;23.352;2023-09-12T00:52:18;95114.66;;;17.17;54.93
41062;BME280;26812;42.662;23.352;2023-09-12T00:54:44;95105.84;;;17.08;55.60
41062;BME280;26812;42.662;23.352;2023-09-12T00:57:10;95108.00;;;17.50;54.38
41062;BME280;26812;42.662;23.352;2023-09-12T00:59:35;95111.56;;;17.19;55.23
41062;BME280;26812;42.662;23.352;2023-09-12T01:02:01;95096.91;;;17.23;55.14
41062;BME280;26812;42.662;23.352;2023-09-12T01:04:27;95114.34;;;17.38;55.12
41062;BME280;26812;42.662;23.352;2023-09-12T01:06:54;95117.09;;;17.57;54.68
41062;BME280;26812;42.662;23.352;2023-09-12T01:09:19;95109.88;;;17.30;55.31
41062;BME280;26812;42.662;23.352;2023-09-12T01:11:45;95113.66;;;17.25;55.51
41062;BME280;26812;42.662;23.352;2023-09-12T01:14:10;95108.59;;;17.43;55.10
41062;BME280;26812;42.662;23.352;2023-09-12T01:16:35;95119.75;;;17.03;56.18
41062;BME280;26812;42.662;23.352;2023-09-12T01:19:01;95132.81;;;16.66;57.32
41062;BME280;26812;42.662;23.352;2023-09-12T01:29:21;95127.56;;;16.73;57.56
41062;BME280;26812;42.662;23.352;2023-09-12T01:31:49;95131.25;;;16.96;56.25
41062;BME280;26812;42.662;23.352;2023-09-12T01:34:14;95125.69;;;16.61;57.57
41062;BME280;26812;42.662;23.352;2023-09-12T01:36:40;95113.53;;;16.27;58.63
41062;BME280;26812;42.662;23.352;2023-09-12T01:39:05;95132.13;;;16.25;59.26
41062;BME280;26812;42.662;23.352;2023-09-12T01:41:35;95132.91;;;16.26;59.51
41062;BME280;26812;42.662;23.352;2023-09-12T01:44:04;95137.34;;;16.62;58.53
41062;BME280;26812;42.662;23.352;2023-09-12T01:46:31;95136.53;;;16.45;59.07
41062;BME280;26812;42.662;23.352;2023-09-12T01:49:00;95139.84;;;16.23;59.74
41062;BME280;26812;42.662;23.352;2023-09-12T01:51:26;95127.69;;;16.21;59.39
41062;BME280;26812;42.662;23.352;2023-09-12T01:53:54;95121.47;;;16.20;59.68
41062;BME280;26812;42.662;23.352;2023-09-12T01:56:21;95118.09;;;16.23;60.05
41062;BME280;26812;42.662;23.352;2023-09-12T01:58:46;95131.78;;;16.42;59.53
41062;BME280;26812;42.662;23.352;2023-09-12T02:01:12;95136.59;;;16.33;59.50
41062;BME280;26812;42.662;23.352;2023-09-12T02:03:37;95137.75;;;16.32;59.30
41062;BME280;26812;42.662;23.352;2023-09-12T02:06:03;95136.00;;;16.12;60.15
41062;BME280;26812;42.662;23.352;2023-09-12T02:08:28;95138.63;;;16.08;60.50
41062;BME280;26812;42.662;23.352;2023-09-12T02:10:54;95136.78;;;15.84;61.46
41062;BME280;26812;42.662;23.352;2023-09-12T02:13:20;95134.19;;;16.16;60.54
41062;BME280;26812;42.662;23.352;2023-09-12T02:15:45;95141.78;;;16.10;60.79
41062;BME280;26812;42.662;23.352;2023-09-12T02:18:10;95142.22;;;16.40;59.90
41062;BME280;26812;42.662;23.352;2023-09-12T02:20:38;95137.69;;;16.17;60.37
41062;BME280;26812;42.662;23.352;2023-09-12T02:23:04;95137.06;;;16.07;60.60
41062;BME280;26812;42.662;23.352;2023-09-12T02:25:30;95140.16;;;15.94;60.93
41062;BME280;26812;42.662;23.352;2023-09-12T02:27:55;95138.13;;;15.91;61.62
41062;BME280;26812;42.662;23.352;2023-09-12T02:30:20;95135.38;;;16.03;60.81
41062;BME280;26812;42.662;23.352;2023-09-12T02:32:46;95150.25;;;15.93;61.11
41062;BME280;26812;42.662;23.352;2023-09-12T02:35:11;95146.06;;;15.83;61.82
41062;BME280;26812;42.662;23.352;2023-09-12T02:37:36;95139.50;;;15.84;61.43
41062;BME280;26812;42.662;23.352;2023-09-12T02:40:02;95137.66;;;16.01;61.18
41062;BME280;26812;42.662;23.352;2023-09-12T02:42:30;95144.94;;;15.84;61.95
41062;BME280;26812;42.662;23.352;2023-09-12T02:44:56;95134.50;;;15.99;60.91
41062;BME280;26812;42.662;23.352;2023-09-12T02:47:21;95136.28;;;15.42;62.79
41062;BME280;26812;42.662;23.352;2023-09-12T02:49:46;95128.50;;;15.16;63.35
41062;BME280;26812;42.662;23.352;2023-09-12T02:52:12;95117.00;;;15.07;63.67
41062;BME280;26812;42.662;23.352;2023-09-12T02:54:37;95130.31;;;15.12;63.63
41062;BME280;26812;42.662;23.352;2023-09-12T02:57:03;95133.69;;;14.97;64.29
41062;BME280;26812;42.662;23.352;2023-09-12T02:59:29;95145.81;;;14.87;65.02
41062;BME280;26812;42.662;23.352;2023-09-12T03:01:55;95139.59;;;14.87;65.26
41062;BME280;26812;42.662;23.352;2023-09-12T03:04:20;95147.06;;;15.02;64.67
41062;BME280;26812;42.662;23.352;2023-09-12T03:06:45;95143.63;;;14.69;65.79
41062;BME280;26812;42.662;23.352;2023-09-12T03:09:11;95118.56;;;14.39;66.00
41062;BME280;26812;42.662;23.352;2023-09-12T03:11:36;95138.31;;;14.60;66.29
41062;BME280;26812;42.662;23.352;2023-09-12T03:14:02;95144.13;;;15.07;65.33
41062;BME280;26812;42.662;23.352;2023-09-12T03:16:27;95147.84;;;15.15;64.90
41062;BME280;26812;42.662;23.352;2023-09-12T03:18:53;95142.97;;;14.96;65.40
41062;BME280;26812;42.662;23.352;2023-09-12T03:21:18;95142.28;;;14.99;65.46
41062;BME280;26812;42.662;23.352;2023-09-12T03:23:44;95146.69;;;14.91;65.72
41062;BME280;26812;42.662;23.352;2023-09-12T03:26:09;95151.34;;;15.15;65.01
41062;BME280;26812;42.662;23.352;2023-09-12T03:28:34;95155.31;;;15.06;64.90
41062;BME280;26812;42.662;23.352;2023-09-12T03:31:09;95150.09;;;15.25;64.97
41062;BME280;26812;42.662;23.352;2023-09-12T03:33:37;95151.25;;;15.36;64.23
41062;BME280;26812;42.662;23.352;2023-09-12T03:36:02;95153.72;;;15.17;65.14
41062;BME280;26812;42.662;23.352;2023-09-12T03:38:28;95140.81;;;14.89;65.50
41062;BME280;26812;42.662;23.352;2023-09-12T03:40:54;95158.13;;;15.21;65.19
41062;BME280;26812;42.662;23.352;2023-09-12T03:43:19;95157.56;;;15.40;64.37
41062;BME280;26812;42.662;23.352;2023-09-12T03:45:44;95152.50;;;15.02;65.46
41062;BME280;26812;42.662;23.352;2023-09-12T03:48:10;95155.41;;;14.97;65.61
41062;BME280;26812;42.662;23.352;2023-09-12T03:50:35;95150.22;;;14.80;66.14
41062;BME280;26812;42.662;23.352;2023-09-12T03:53:00;95155.97;;;14.78;66.46
41062;BME280;26812;42.662;23.352;2023-09-12T03:55:27;95159.94;;;14.93;66.44
41062;BME280;26812;42.662;23.352;2023-09-12T03:57:52;95158.22;;;14.88;66.08
41062;BME280;26812;42.662;23.352;2023-09-12T04:00:17;95154.28;;;14.86;66.37
41062;BME280;26812;42.662;23.352;2023-09-12T04:02:43;95155.09;;;15.11;65.28
41062;BME280;26812;42.662;23.352;2023-09-12T04:05:08;95144.34;;;14.90;65.63
41062;BME280;26812;42.662;23.352;2023-09-12T04:07:34;95164.44;;;14.89;65.87
41062;BME280;26812;42.662;23.352;2023-09-12T04:10:00;95150.84;;;14.52;66.99
41062;BME280;26812;42.662;23.352;2023-09-12T04:12:25;95144.97;;;14.63;66.45
41062;BME280;26812;42.662;23.352;2023-09-12T04:14:52;95169.75;;;14.98;64.18
41062;BME280;26812;42.662;23.352;2023-09-12T04:17:18;95148.97;;;14.89;64.67
41062;BME280;26812;42.662;23.352;2023-09-12T04:19:43;95162.97;;;14.91;65.85
41062;BME280;26812;42.662;23.352;2023-09-12T04:22:08;95168.41;;;14.91;65.81
41062;BME280;26812;42.662;23.352;2023-09-12T04:24:34;95159.84;;;15.14;64.47
41062;BME280;26812;42.662;23.352;2023-09-12T04:26:59;95154.97;;;15.19;64.07
41062;BME280;26812;42.662;23.352;2023-09-12T04:29:24;95162.41;;;14.86;65.58
41062;BME280;26812;42.662;23.352;2023-09-12T04:31:50;95159.59;;;14.95;65.23
41062;BME280;26812;42.662;23.352;2023-09-12T04:34:17;95161.41;;;14.78;65.75
41062;BME280;26812;42.662;23.352;2023-09-12T04:36:43;95150.50;;;14.54;66.28
41062;BME280;26812;42.662;23.352;2023-09-12T04:39:09;95141.72;;;14.36;66.61
41062;BME280;26812;42.662;23.352;2023-09-12T04:41:34;95168.69;;;14.66;67.16
41062;BME280;26812;42.662;23.352;2023-09-12T04:44:00;95161.63;;;14.85;64.86
41062;BME280;26812;42.662;23.352;2023-09-12T04:46:27;95170.00;;;14.93;64.60
41062;BME280;26812;42.662;23.352;2023-09-12T04:48:52;95162.69;;;14.60;65.68
41062;BME280;26812;42.662;23.352;2023-09-12T04:51:18;95155.56;;;14.43;66.59
41062;BME280;26812;42.662;23.352;2023-09-12T04:53:43;95179.94;;;14.76;66.37
41062;BME280;26812;42.662;23.352;2023-09-12T04:56:09;95175.06;;;14.82;64.95
41062;BME280;26812;42.662;23.352;2023-09-12T04:58:35;95175.56;;;15.08;64.90
41062;BME280;26812;42.662;23.352;2023-09-12T05:01:00;95167.75;;;15.19;63.90
41062;BME280;26812;42.662;23.352;2023-09-12T05:03:26;95175.66;;;15.24;63.98
41062;BME280;26812;42.662;23.352;2023-09-12T05:05:51;95167.41;;;15.20;63.85
41062;BME280;26812;42.662;23.352;2023-09-12T05:08:17;95182.13;;;15.07;63.65
41062;BME280;26812;42.662;23.352;2023-09-12T05:10:45;95174.84;;;15.48;62.49
41062;BME280;26812;42.662;23.352;2023-09-12T05:13:11;95169.44;;;15.60;62.14
41062;BME280;26812;42.662;23.352;2023-09-12T05:15:37;95175.94;;;15.83;61.24
41062;BME280;26812;42.662;23.352;2023-09-12T05:18:07;95174.34;;;15.95;60.90
41062;BME280;26812;42.662;23.352;2023-09-12T05:20:33;95184.69;;;16.17;59.49
41062;BME280;26812;42.662;23.352;2023-09-12T05:22:59;95165.13;;;16.11;59.28
41062;BME280;26812;42.662;23.352;2023-09-12T05:25:24;95193.41;;;16.23;59.67
41062;BME280;26812;42.662;23.352;2023-09-12T05:27:51;95196.59;;;16.40;59.45
41062;BME280;26812;42.662;23.352;2023-09-12T05:30:17;95180.13;;;16.77;58.16
41062;BME280;26812;42.662;23.352;2023-09-12T05:32:42;95174.75;;;17.44;56.71
41062;BME280;26812;42.662;23.352;2023-09-12T05:35:08;95187.25;;;18.34;54.18
41062;BME280;26812;42.662;23.352;2023-09-12T05:37:33;95182.53;;;18.70;52.06
41062;BME280;26812;42.662;23.352;2023-09-12T05:39:58;95185.84;;;18.21;53.42
41062;BME280;26812;42.662;23.352;2023-09-12T05:42:24;95184.38;;;17.88;54.56
41062;BME280;26812;42.662;23.352;2023-09-12T05:44:50;95202.84;;;17.63;55.06
41062;BME280;26812;42.662;23.352;2023-09-12T05:47:19;95190.00;;;17.29;55.93
41062;BME280;26812;42.662;23.352;2023-09-12T05:49:44;95196.31;;;17.33;56.33
41062;BME280;26812;42.662;23.352;2023-09-12T05:52:09;95193.97;;;17.82;55.45
41062;BME280;26812;42.662;23.352;2023-09-12T05:54:36;95197.06;;;18.00;54.00
41062;BME280;26812;42.662;23.352;2023-09-12T05:57:01;95191.22;;;18.17;52.85
41062;BME280;26812;42.662;23.352;2023-09-12T05:59:27;95187.56;;;17.75;53.89
41062;BME280;26812;42.662;23.352;2023-09-12T06:01:53;95187.53;;;17.90;54.34
41062;BME280;26812;42.662;23.352;2023-09-12T06:04:18;95185.47;;;17.68;55.03
41062;BME280;26812;42.662;23.352;2023-09-12T06:06:46;95174.97;;;17.86;54.07
41062;BME280;26812;42.662;23.352;2023-09-12T06:09:11;95174.47;;;17.99;53.79
41062;BME280;26812;42.662;23.352;2023-09-12T06:11:37;95177.06;;;18.50;53.10
41062;BME280;26812;42.662;23.352;2023-09-12T06:14:02;95191.63;;;18.58;52.94
41062;BME280;26812;42.662;23.352;2023-09-12T06:16:28;95189.78;;;18.62;52.68
41062;BME280;26812;42.662;23.352;2023-09-12T06:18:53;95181.41;;;18.71;52.83
41062;BME280;26812;42.662;23.352;2023-09-12T06:21:19;95176.50;;;18.80;51.61
41062;BME280;26812;42.662;23.352;2023-09-12T06:23:47;95172.00;;;18.91;51.76
41062;BME280;26812;42.662;23.352;2023-09-12T06:26:12;95201.44;;;19.24;50.33
41062;BME280;26812;42.662;23.352;2023-09-12T06:28:37;95200.44;;;19.59;47.44
41062;BME280;26812;42.662;23.352;2023-09-12T06:31:03;95208.84;;;19.69;46.54
41062;BME280;26812;42.662;23.352;2023-09-12T06:33:29;95201.75;;;19.91;46.67
41062;BME280;26812;42.662;23.352;2023-09-12T06:35:54;95204.72;;;20.09;45.46
41062;BME280;26812;42.662;23.352;2023-09-12T06:38:21;95203.38;;;20.26;44.90
41062;BME280;26812;42.662;23.352;2023-09-12T06:40:47;95195.53;;;20.24;45.07
41062;BME280;26812;42.662;23.352;2023-09-12T06:43:13;95204.81;;;20.46;44.03
41062;BME280;26812;42.662;23.352;2023-09-12T06:45:40;95215.38;;;20.81;43.35
41062;BME280;26812;42.662;23.352;2023-09-12T06:48:06;95199.66;;;21.12;42.50
41062;BME280;26812;42.662;23.352;2023-09-12T06:50:31;95221.53;;;21.45;41.97
41062;BME280;26812;42.662;23.352;2023-09-12T06:52:57;95222.38;;;21.53;41.51
41062;BME280;26812;42.662;23.352;2023-09-12T06:55:22;95214.78;;;21.83;40.37
41062;BME280;26812;42.662;23.352;2023-09-12T06:57:47;95210.94;;;22.68;38.99
41062;BME280;26812;42.662;23.352;2023-09-12T07:00:13;95216.66;;;23.85;37.12
41062;BME280;26812;42.662;23.352;2023-09-12T07:02:39;95214.50;;;24.71;35.66
41062;BME280;26812;42.662;23.352;2023-09-12T07:05:05;95207.72;;;24.93;34.75
41062;BME280;26812;42.662;23.352;2023-09-12T07:07:30;95218.00;;;24.82;34.10
41062;BME280;26812;42.662;23.352;2023-09-12T07:09:56;95216.53;;;24.60;34.62
41062;BME280;26812;42.662;23.352;2023-09-12T07:12:22;95209.88;;;24.46;34.80
41062;BME280;26812;42.662;23.352;2023-09-12T07:14:47;95203.97;;;24.44;34.52
41062;BME280;26812;42.662;23.352;2023-09-12T07:17:12;95214.59;;;24.50;35.38
41062;BME280;26812;42.662;23.352;2023-09-12T07:19:38;95225.41;;;24.99;35.01
41062;BME280;26812;42.662;23.352;2023-09-12T07:22:03;95223.38;;;25.77;33.52
41062;BME280;26812;42.662;23.352;2023-09-12T07:24:29;95215.38;;;26.68;31.55
41062;BME280;26812;42.662;23.352;2023-09-12T07:26:54;95209.16;;;27.75;29.78
41062;BME280;26812;42.662;23.352;2023-09-12T07:29:19;95222.25;;;28.85;27.86
41062;BME280;26812;42.662;23.352;2023-09-12T07:31:45;95209.94;;;29.58;26.57
41062;BME280;26812;42.662;23.352;2023-09-12T07:34:10;95209.97;;;29.02;26.55
41062;BME280;26812;42.662;23.352;2023-09-12T07:36:37;95217.91;;;28.40;27.82
41062;BME280;26812;42.662;23.352;2023-09-12T07:39:03;95221.78;;;27.76;28.76
41062;BME280;26812;42.662;23.352;2023-09-12T07:41:29;95213.81;;;26.98;30.01
41062;BME280;26812;42.662;23.352;2023-09-12T07:43:55;95216.88;;;26.73;30.23
41062;BME280;26812;42.662;23.352;2023-09-12T07:46:20;95205.84;;;26.31;30.59
41062;BME280;26812;42.662;23.352;2023-09-12T07:48:45;95199.91;;;25.95;31.08
41062;BME280;26812;42.662;23.352;2023-09-12T07:51:12;95212.75;;;25.09;31.56
41062;BME280;26812;42.662;23.352;2023-09-12T07:53:39;95198.84;;;24.54;32.22
41062;BME280;26812;42.662;23.352;2023-09-12T07:56:05;95197.78;;;23.44;35.67
41062;BME280;26812;42.662;23.352;2023-09-12T07:58:30;95209.59;;;23.77;35.43
41062;BME280;26812;42.662;23.352;2023-09-12T08:00:55;95204.78;;;24.27;34.29
41062;BME280;26812;42.662;23.352;2023-09-12T08:03:21;95204.34;;;24.57;34.57
41062;BME280;26812;42.662;23.352;2023-09-12T08:05:56;95204.66;;;24.70;34.13
41062;BME280;26812;42.662;23.352;2023-09-12T08:08:22;95202.25;;;24.83;34.37
41062;BME280;26812;42.662;23.352;2023-09-12T08:10:48;95194.66;;;25.08;33.12
41062;BME280;26812;42.662;23.352;2023-09-12T08:13:13;95187.16;;;25.12;32.84
41062;BME280;26812;42.662;23.352;2023-09-12T08:15:39;95205.19;;;25.24;32.51
41062;BME280;26812;42.662;23.352;2023-09-12T08:18:04;95204.72;;;24.56;33.65
41062;BME280;26812;42.662;23.352;2023-09-12T08:20:30;95215.00;;;24.37;34.24
41062;BME280;26812;42.662;23.352;2023-09-12T08:22:55;95220.00;;;24.71;34.39
41062;BME280;26812;42.662;23.352;2023-09-12T08:25:20;95208.84;;;25.03;33.35
41062;BME280;26812;42.662;23.352;2023-09-12T08:27:46;95201.78;;;24.95;33.37
41062;BME280;26812;42.662;23.352;2023-09-12T08:30:12;95208.06;;;25.02;32.45
41062;BME280;26812;42.662;23.352;2023-09-12T08:32:39;95200.66;;;24.85;32.67
41062;BME280;26812;42.662;23.352;2023-09-12T08:35:06;95200.59;;;25.03;32.16
41062;BME280;26812;42.662;23.352;2023-09-12T08:37:32;95198.53;;;25.21;32.07
41062;BME280;26812;42.662;23.352;2023-09-12T08:39:57;95196.50;;;25.29;31.67
41062;BME280;26812;42.662;23.352;2023-09-12T08:42:26;95188.41;;;25.56;31.07
41062;BME280;26812;42.662;23.352;2023-09-12T08:44:53;95187.16;;;25.64;30.89
41062;BME280;26812;42.662;23.352;2023-09-12T08:47:19;95198.31;;;25.98;30.33
41062;BME280;26812;42.662;23.352;2023-09-12T08:49:47;95185.75;;;25.93;30.61
41062;BME280;26812;42.662;23.352;2023-09-12T08:52:13;95186.16;;;25.92;31.16
41062;BME280;26812;42.662;23.352;2023-09-12T08:54:38;95180.53;;;26.03;31.33
41062;BME280;26812;42.662;23.352;2023-09-12T08:57:05;95184.97;;;25.93;30.60
41062;BME280;26812;42.662;23.352;2023-09-12T08:59:33;95175.50;;;26.35;30.34
41062;BME280;26812;42.662;23.352;2023-09-12T09:02:00;95194.16;;;26.58;30.17
41062;BME280;26812;42.662;23.352;2023-09-12T09:04:29;95189.81;;;26.57;29.28
41062;BME280;26812;42.662;23.352;2023-09-12T09:06:57;95194.44;;;26.29;29.44
41062;BME280;26812;42.662;23.352;2023-09-12T09:09:23;95195.13;;;25.99;29.72
41062;BME280;26812;42.662;23.352;2023-09-12T09:11:50;95199.09;;;26.02;30.01
41062;BME280;26812;42.662;23.352;2023-09-12T09:14:15;95196.13;;;25.79;30.24
41062;BME280;26812;42.662;23.352;2023-09-12T09:16:41;95176.25;;;25.94;30.02
41062;BME280;26812;42.662;23.352;2023-09-12T09:19:13;95171.94;;;26.31;29.99
41062;BME280;26812;42.662;23.352;2023-09-12T09:21:40;95188.00;;;26.77;29.57
41062;BME280;26812;42.662;23.352;2023-09-12T09:24:08;95181.84;;;26.66;28.64
41062;BME280;26812;42.662;23.352;2023-09-12T09:26:43;95179.44;;;26.68;28.43
41062;BME280;26812;42.662;23.352;2023-09-12T09:29:12;95164.59;;;26.85;29.16
41062;BME280;26812;42.662;23.352;2023-09-12T09:31:41;95166.03;;;26.93;29.04
41062;BME280;26812;42.662;23.352;2023-09-12T09:34:14;95172.50;;;26.83;28.72
41062;BME280;26812;42.662;23.352;2023-09-12T09:36:41;95138.94;;;26.20;29.17
41062;BME280;26812;42.662;23.352;2023-09-12T09:39:08;95154.88;;;26.06;30.25
41062;BME280;26812;42.662;23.352;2023-09-12T09:41:34;95142.38;;;26.62;29.29
41062;BME280;26812;42.662;23.352;2023-09-12T09:43:59;95145.88;;;26.97;28.47
41062;BME280;26812;42.662;23.352;2023-09-12T09:46:25;95151.28;;;27.07;27.93
41062;BME280;26812;42.662;23.352;2023-09-12T09:48:51;95141.06;;;27.04;28.03
41062;BME280;26812;42.662;23.352;2023-09-12T09:51:17;95150.38;;;27.14;28.61
41062;BME280;26812;42.662;23.352;2023-09-12T09:53:43;95157.13;;;27.40;28.89
41062;BME280;26812;42.662;23.352;2023-09-12T09:56:13;95152.84;;;27.62;27.53
41062;BME280;26812;42.662;23.352;2023-09-12T09:58:57;95145.06;;;27.77;27.92
41062;BME280;26812;42.662;23.352;2023-09-12T10:01:28;95139.06;;;28.02;27.94
41062;BME280;26812;42.662;23.352;2023-09-12T10:03:59;95135.00;;;28.30;26.34
41062;BME280;26812;42.662;23.352;2023-09-12T10:06:26;95138.50;;;28.34;26.10
41062;BME280;26812;42.662;23.352;2023-09-12T10:08:53;95141.44;;;28.23;25.88
41062;BME280;26812;42.662;23.352;2023-09-12T10:11:22;95130.28;;;27.37;27.07
41062;BME280;26812;42.662;23.352;2023-09-12T10:13:55;95137.25;;;27.72;27.67
41062;BME280;26812;42.662;23.352;2023-09-12T10:16:25;95133.28;;;27.73;26.44
41062;BME280;26812;42.662;23.352;2023-09-12T10:19:17;95125.56;;;27.61;26.81
41062;BME280;26812;42.662;23.352;2023-09-12T10:21:49;95127.28;;;27.28;26.47
41062;BME280;26812;42.662;23.352;2023-09-12T10:24:15;95110.44;;;27.42;26.62
41062;BME280;26812;42.662;23.352;2023-09-12T10:26:43;95115.53;;;27.70;26.87
41062;BME280;26812;42.662;23.352;2023-09-12T10:29:13;95113.44;;;27.98;27.37
41062;BME280;26812;42.662;23.352;2023-09-12T10:31:39;95105.16;;;28.57;26.35
41062;BME280;26812;42.662;23.352;2023-09-12T10:34:05;95101.66;;;28.73;25.13
41062;BME280;26812;42.662;23.352;2023-09-12T10:36:40;95100.66;;;28.83;25.15
41062;BME280;26812;42.662;23.352;2023-09-12T10:39:07;95110.59;;;28.81;23.89
41062;BME280;26812;42.662;23.352;2023-09-12T10:41:37;95108.28;;;28.59;24.58
41062;BME280;26812;42.662;23.352;2023-09-12T10:44:02;95103.63;;;28.92;24.29
41062;BME280;26812;42.662;23.352;2023-09-12T10:46:39;95105.19;;;28.93;24.59
41062;BME280;26812;42.662;23.352;2023-09-12T10:49:10;95092.44;;;28.96;23.65
41062;BME280;26812;42.662;23.352;2023-09-12T10:51:54;95100.91;;;29.09;24.13
41062;BME280;26812;42.662;23.352;2023-09-12T10:54:25;95091.47;;;28.30;24.82
41062;BME280;26812;42.662;23.352;2023-09-12T10:57:07;95092.91;;;28.74;24.39
41062;BME280;26812;42.662;23.352;2023-09-12T10:59:33;95090.47;;;29.29;24.36
41062;BME280;26812;42.662;23.352;2023-09-12T11:02:30;95098.56;;;29.40;24.18
41062;BME280;26812;42.662;23.352;2023-09-12T11:05:00;95083.03;;;29.58;24.27
41062;BME280;26812;42.662;23.352;2023-09-12T11:10:15;95078.31;;;29.88;24.38
41062;BME280;26812;42.662;23.352;2023-09-12T11:12:43;95063.28;;;29.40;23.85
41062;BME280;26812;42.662;23.352;2023-09-12T11:15:09;95067.53;;;29.45;24.20
41062;BME280;26812;42.662;23.352;2023-09-12T11:17:45;95041.69;;;29.48;24.34
41062;BME280;26812;42.662;23.352;2023-09-12T11:20:12;95062.72;;;29.78;24.26
41062;BME280;26812;42.662;23.352;2023-09-12T11:22:42;95059.09;;;30.10;23.96
41062;BME280;26812;42.662;23.352;2023-09-12T11:25:24;95055.97;;;29.91;23.76
41062;BME280;26812;42.662;23.352;2023-09-12T11:30:23;95051.91;;;30.25;23.00
41062;BME280;26812;42.662;23.352;2023-09-12T11:32:53;95067.59;;;30.32;22.87
41062;BME280;26812;42.662;23.352;2023-09-12T11:35:24;95057.59;;;30.34;23.12
41062;BME280;26812;42.662;23.352;2023-09-12T11:37:51;95063.25;;;29.56;24.09
41062;BME280;26812;42.662;23.352;2023-09-12T11:40:21;95058.53;;;29.86;23.53
41062;BME280;26812;42.662;23.352;2023-09-12T11:42:47;95060.38;;;30.34;23.72
41062;BME280;26812;42.662;23.352;2023-09-12T11:45:17;95043.31;;;29.61;23.84
41062;BME280;26812;42.662;23.352;2023-09-12T11:47:44;95045.13;;;29.97;23.78
41062;BME280;26812;42.662;23.352;2023-09-12T11:50:54;95049.78;;;30.29;23.05
41062;BME280;26812;42.662;23.352;2023-09-12T11:53:22;95041.06;;;30.43;23.31
41062;BME280;26812;42.662;23.352;2023-09-12T11:55:52;95035.53;;;30.81;23.99
41062;BME280;26812;42.662;23.352;2023-09-12T11:58:18;95041.22;;;31.29;23.28
41062;BME280;26812;42.662;23.352;2023-09-12T12:00:49;95023.34;;;31.51;22.78
41062;BME280;26812;42.662;23.352;2023-09-12T12:03:16;95035.69;;;31.63;22.90
41062;BME280;26812;42.662;23.352;2023-09-12T12:05:42;95039.56;;;31.66;22.18
41062;BME280;26812;42.662;23.352;2023-09-12T12:08:08;95026.56;;;31.50;21.92
41062;BME280;26812;42.662;23.352;2023-09-12T12:10:35;95027.91;;;31.58;21.84
41062;BME280;26812;42.662;23.352;2023-09-12T12:13:03;95031.00;;;31.60;22.04
41062;BME280;26812;42.662;23.352;2023-09-12T12:15:28;95019.53;;;31.71;22.32
41062;BME280;26812;42.662;23.352;2023-09-12T12:17:55;95027.06;;;31.70;22.30
41062;BME280;26812;42.662;23.352;2023-09-12T12:20:21;95015.59;;;31.68;22.95
41062;BME280;26812;42.662;23.352;2023-09-12T12:22:46;95008.72;;;31.95;22.36
41062;BME280;26812;42.662;23.352;2023-09-12T12:25:12;95008.34;;;32.05;22.68
41062;BME280;26812;42.662;23.352;2023-09-12T12:27:38;95020.06;;;32.44;21.80
41062;BME280;26812;42.662;23.352;2023-09-12T12:30:09;95022.16;;;32.31;22.52
41062;BME280;26812;42.662;23.352;2023-09-12T12:32:44;95022.44;;;32.11;22.93
41062;BME280;26812;42.662;23.352;2023-09-12T12:35:22;95014.94;;;32.21;22.01
41062;BME280;26812;42.662;23.352;2023-09-12T12:37:55;95017.50;;;32.28;22.39
41062;BME280;26812;42.662;23.352;2023-09-12T12:40:24;95016.00;;;32.36;22.52
41062;BME280;26812;42.662;23.352;2023-09-12T12:42:50;95016.38;;;32.47;22.43
41062;BME280;26812;42.662;23.352;2023-09-12T12:45:20;95005.78;;;32.42;21.92
41062;BME280;26812;42.662;23.352;2023-09-12T12:47:46;95002.81;;;32.36;21.31
41062;BME280;26812;42.662;23.352;2023-09-12T12:50:16;95018.00;;;32.35;22.35
41062;BME280;26812;42.662;23.352;2023-09-12T12:52:47;95008.03;;;32.25;22.24
41062;BME280;26812;42.662;23.352;2023-09-12T12:55:13;95001.53;;;32.50;21.61
41062;BME280;26812;42.662;23.352;2023-09-12T12:57:40;94995.56;;;32.39;21.98
41062;BME280;26812;42.662;23.352;2023-09-12T13:02:33;94996.22;;;32.21;21.28
41062;BME280;26812;42.662;23.352;2023-09-12T13:04:58;94986.00;;;31.96;21.08